createdAt,value
2023-05-22T00:04:01.775Z,51.5
2023-05-22T00:16:01.615Z,51.5
2023-05-22T00:28:01.929Z,51.5
2023-05-22T00:40:01.750Z,51.5
2023-05-22T00:52:01.715Z,51.5
2023-05-22T01:04:01.685Z,51.5
2023-05-22T01:16:01.917Z,51.5
2023-05-22T01:28:01.799Z,51.5
2023-05-22T01:40:01.753Z,51.5
2023-05-22T01:52:01.691Z,51.5
2023-05-22T02:04:01.868Z,51.5
2023-05-22T02:16:01.911Z,51.5
2023-05-22T02:28:01.834Z,51.5
2023-05-22T02:40:01.930Z,52
2023-05-22T02:52:02.009Z,52
2023-05-22T03:04:01.905Z,52
2023-05-22T03:16:01.893Z,52
2023-05-22T03:28:02.018Z,52
2023-05-22T03:40:01.946Z,52
2023-05-22T03:52:01.864Z,52
2023-05-22T04:04:01.855Z,52
2023-05-22T04:16:02.114Z,52.5
2023-05-22T04:28:02.013Z,52.5
2023-05-22T04:40:01.921Z,53
2023-05-22T04:52:01.990Z,53
2023-05-22T05:04:02.124Z,53.5
2023-05-22T05:16:02.006Z,53.5
2023-05-22T05:28:01.942Z,53.5
2023-05-22T05:40:02.114Z,54
2023-05-22T05:52:02.050Z,54
2023-05-22T06:04:02.069Z,54
2023-05-22T06:16:04.960Z,54
2023-05-22T06:28:02.263Z,54
2023-05-22T06:40:02.109Z,54.5
2023-05-22T06:52:03.992Z,54.5
2023-05-22T07:04:02.052Z,54.5
2023-05-22T07:16:02.244Z,54.5
2023-05-22T07:28:02.196Z,54.5
2023-05-22T07:40:02.434Z,54.5
2023-05-22T07:52:02.057Z,54.5
2023-05-22T08:04:02.451Z,54.5
2023-05-22T08:16:02.154Z,54.5
2023-05-22T08:28:02.230Z,54.5
2023-05-22T08:40:02.274Z,54.5
2023-05-22T08:52:02.286Z,54
2023-05-22T09:04:02.256Z,54
2023-05-22T09:16:02.221Z,54
2023-05-22T09:28:02.170Z,53.5
2023-05-22T09:40:02.433Z,53.5
2023-05-22T09:52:02.261Z,52
2023-05-22T10:04:02.396Z,52.5
2023-05-22T10:16:05.266Z,52.5
2023-05-22T10:28:02.662Z,52
2023-05-22T10:40:02.324Z,52
2023-05-22T10:52:02.439Z,52.5
2023-05-22T11:04:02.262Z,51
2023-05-22T11:16:02.380Z,51
2023-05-22T11:28:02.482Z,51
2023-05-22T11:40:02.561Z,49
2023-05-22T11:52:02.347Z,49.5
2023-05-22T12:04:02.493Z,49
2023-05-22T12:16:02.541Z,48
2023-05-22T12:28:02.591Z,47.5
2023-05-22T12:40:02.409Z,46.5
2023-05-22T12:52:02.505Z,45.5
2023-05-22T13:04:02.536Z,44.5
2023-05-22T13:16:02.698Z,43.5
2023-05-22T13:28:02.483Z,42.5
2023-05-22T13:40:02.569Z,41.5
2023-05-22T13:52:02.587Z,41.5
2023-05-22T14:04:02.685Z,40.5
2023-05-22T14:16:02.509Z,39.5
2023-05-22T14:28:02.611Z,39
2023-05-22T14:40:02.633Z,38.5
2023-05-22T14:52:02.731Z,38
2023-05-22T15:04:02.562Z,38
2023-05-22T15:16:02.661Z,38
2023-05-22T15:28:02.717Z,38
2023-05-22T15:40:02.749Z,38
2023-05-22T15:52:02.593Z,38
2023-05-22T16:04:02.765Z,38
2023-05-22T16:16:02.788Z,38
2023-05-22T16:28:02.858Z,38.5
2023-05-22T16:40:02.666Z,38.5
2023-05-22T16:52:02.736Z,38.5
2023-05-22T17:04:02.828Z,39
2023-05-22T17:16:02.891Z,39.5
2023-05-22T17:28:02.732Z,40
2023-05-22T17:40:02.769Z,46
2023-05-22T17:52:02.807Z,50
2023-05-22T18:04:03.113Z,51.5
2023-05-22T18:16:02.761Z,52
2023-05-22T18:28:03.043Z,52.5
2023-05-22T18:40:02.969Z,53.5
2023-05-22T18:52:02.950Z,54
2023-05-22T19:04:02.810Z,54.5
2023-05-22T19:16:03.068Z,55.5
2023-05-22T19:28:03.599Z,56.5
2023-05-22T19:40:02.953Z,57
2023-05-22T19:52:02.803Z,57.5
2023-05-22T20:04:03.258Z,58
2023-05-22T20:16:02.964Z,58.5
2023-05-22T20:28:03.017Z,59
2023-05-22T20:40:03.475Z,59
2023-05-22T20:52:03.246Z,59
2023-05-22T21:04:02.998Z,59.5
2023-05-22T21:16:03.177Z,59.5
2023-05-22T21:28:03.089Z,58.5
2023-05-22T21:40:03.566Z,57
2023-05-22T21:52:02.988Z,56.5
2023-05-22T22:04:03.191Z,56.5
2023-05-22T22:16:03.135Z,56.5
2023-05-22T22:28:03.200Z,56.5
2023-05-22T22:40:03.026Z,56.5
2023-05-22T22:52:03.233Z,56
2023-05-22T23:04:03.037Z,56
2023-05-22T23:16:03.322Z,55.5
2023-05-22T23:28:03.217Z,55.5
2023-05-22T23:40:03.273Z,55
2023-05-22T23:52:03.115Z,55
